sensor_id;sensor_type;location;lat;lon;timestamp;P1;durP1;ratioP1;P2;durP2;ratioP2
14080;SDS011;7116;52.152;5.392;2023-06-22T00:00:16;6.63;;;4.90;;
14080;SDS011;7116;52.152;5.392;2023-06-22T00:02:41;7.80;;;5.03;;
14080;SDS011;7116;52.152;5.392;2023-06-22T00:05:06;8.70;;;5.10;;
14080;SDS011;7116;52.152;5.392;2023-06-22T00:07:31;9.17;;;5.23;;
14080;SDS011;7116;52.152;5.392;2023-06-22T00:09:57;7.07;;;4.83;;
14080;SDS011;7116;52.152;5.392;2023-06-22T00:12:22;6.77;;;4.77;;
14080;SDS011;7116;52.152;5.392;2023-06-22T00:14:47;6.37;;;4.80;;
14080;SDS011;7116;52.152;5.392;2023-06-22T00:17:12;9.37;;;5.43;;
14080;SDS011;7116;52.152;5.392;2023-06-22T00:19:37;8.40;;;4.70;;
14080;SDS011;7116;52.152;5.392;2023-06-22T00:22:05;9.73;;;4.57;;
14080;SDS011;7116;52.152;5.392;2023-06-22T00:24:30;6.33;;;4.43;;
14080;SDS011;7116;52.152;5.392;2023-06-22T00:26:55;7.17;;;5.00;;
14080;SDS011;7116;52.152;5.392;2023-06-22T00:29:21;9.20;;;5.73;;
14080;SDS011;7116;52.152;5.392;2023-06-22T00:31:46;6.47;;;4.97;;
14080;SDS011;7116;52.152;5.392;2023-06-22T00:34:11;11.10;;;5.70;;
14080;SDS011;7116;52.152;5.392;2023-06-22T00:36:36;9.00;;;5.30;;
14080;SDS011;7116;52.152;5.392;2023-06-22T00:39:02;11.30;;;5.70;;
14080;SDS011;7116;52.152;5.392;2023-06-22T00:41:27;8.37;;;5.27;;
14080;SDS011;7116;52.152;5.392;2023-06-22T00:43:53;6.72;;;4.68;;
14080;SDS011;7116;52.152;5.392;2023-06-22T00:46:18;6.63;;;4.10;;
14080;SDS011;7116;52.152;5.392;2023-06-22T00:48:44;7.87;;;5.10;;
14080;SDS011;7116;52.152;5.392;2023-06-22T00:51:09;7.60;;;4.60;;
14080;SDS011;7116;52.152;5.392;2023-06-22T00:53:35;7.13;;;4.53;;
14080;SDS011;7116;52.152;5.392;2023-06-22T00:56:02;7.55;;;5.18;;
14080;SDS011;7116;52.152;5.392;2023-06-22T00:58:28;6.53;;;4.88;;
14080;SDS011;7116;52.152;5.392;2023-06-22T01:00:53;6.73;;;4.70;;
14080;SDS011;7116;52.152;5.392;2023-06-22T01:03:19;7.57;;;5.30;;
14080;SDS011;7116;52.152;5.392;2023-06-22T01:05:45;7.97;;;5.18;;
14080;SDS011;7116;52.152;5.392;2023-06-22T01:08:33;7.13;;;5.10;;
14080;SDS011;7116;52.152;5.392;2023-06-22T01:11:10;7.10;;;5.05;;
14080;SDS011;7116;52.152;5.392;2023-06-22T01:13:48;7.50;;;5.30;;
14080;SDS011;7116;52.152;5.392;2023-06-22T01:18:41;6.80;;;4.43;;
14080;SDS011;7116;52.152;5.392;2023-06-22T01:21:07;8.15;;;5.10;;
14080;SDS011;7116;52.152;5.392;2023-06-22T01:28:36;7.10;;;4.82;;
14080;SDS011;7116;52.152;5.392;2023-06-22T01:31:02;6.75;;;4.22;;
14080;SDS011;7116;52.152;5.392;2023-06-22T01:33:32;10.30;;;5.20;;
14080;SDS011;7116;52.152;5.392;2023-06-22T01:35:58;8.00;;;4.60;;
14080;SDS011;7116;52.152;5.392;2023-06-22T01:38:23;7.18;;;4.55;;
14080;SDS011;7116;52.152;5.392;2023-06-22T01:40:49;7.43;;;5.22;;
14080;SDS011;7116;52.152;5.392;2023-06-22T01:43:15;6.80;;;4.80;;
14080;SDS011;7116;52.152;5.392;2023-06-22T01:45:40;7.73;;;4.60;;
14080;SDS011;7116;52.152;5.392;2023-06-22T01:48:06;9.77;;;4.70;;
14080;SDS011;7116;52.152;5.392;2023-06-22T01:50:31;7.07;;;4.60;;
14080;SDS011;7116;52.152;5.392;2023-06-22T01:52:57;8.43;;;5.13;;
14080;SDS011;7116;52.152;5.392;2023-06-22T01:55:22;8.03;;;4.70;;
14080;SDS011;7116;52.152;5.392;2023-06-22T01:57:47;6.30;;;4.73;;
14080;SDS011;7116;52.152;5.392;2023-06-22T02:00:14;7.93;;;5.30;;
14080;SDS011;7116;52.152;5.392;2023-06-22T02:02:44;7.65;;;4.78;;
14080;SDS011;7116;52.152;5.392;2023-06-22T02:05:11;8.40;;;5.00;;
14080;SDS011;7116;52.152;5.392;2023-06-22T02:07:41;7.95;;;5.03;;
14080;SDS011;7116;52.152;5.392;2023-06-22T02:10:09;8.20;;;5.20;;
14080;SDS011;7116;52.152;5.392;2023-06-22T02:12:37;7.68;;;5.35;;
14080;SDS011;7116;52.152;5.392;2023-06-22T02:15:02;6.83;;;5.07;;
14080;SDS011;7116;52.152;5.392;2023-06-22T02:17:28;8.00;;;5.33;;
14080;SDS011;7116;52.152;5.392;2023-06-22T02:19:53;9.60;;;6.22;;
14080;SDS011;7116;52.152;5.392;2023-06-22T02:22:19;6.97;;;4.93;;
14080;SDS011;7116;52.152;5.392;2023-06-22T02:24:44;7.87;;;5.27;;
14080;SDS011;7116;52.152;5.392;2023-06-22T02:27:09;9.13;;;5.43;;
14080;SDS011;7116;52.152;5.392;2023-06-22T02:29:36;8.88;;;5.63;;
14080;SDS011;7116;52.152;5.392;2023-06-22T02:32:02;8.10;;;5.50;;
14080;SDS011;7116;52.152;5.392;2023-06-22T02:34:27;9.87;;;5.63;;
14080;SDS011;7116;52.152;5.392;2023-06-22T02:36:52;7.90;;;5.40;;
14080;SDS011;7116;52.152;5.392;2023-06-22T02:39:22;9.07;;;6.17;;
14080;SDS011;7116;52.152;5.392;2023-06-22T02:41:51;8.13;;;5.60;;
14080;SDS011;7116;52.152;5.392;2023-06-22T02:44:16;8.57;;;6.03;;
14080;SDS011;7116;52.152;5.392;2023-06-22T02:46:42;9.23;;;5.47;;
14080;SDS011;7116;52.152;5.392;2023-06-22T02:49:07;8.03;;;5.67;;
14080;SDS011;7116;52.152;5.392;2023-06-22T02:51:33;8.23;;;5.07;;
14080;SDS011;7116;52.152;5.392;2023-06-22T02:53:59;10.02;;;5.93;;
14080;SDS011;7116;52.152;5.392;2023-06-22T02:56:24;7.40;;;5.10;;
14080;SDS011;7116;52.152;5.392;2023-06-22T02:58:49;8.87;;;5.50;;
14080;SDS011;7116;52.152;5.392;2023-06-22T03:01:15;8.23;;;5.47;;
14080;SDS011;7116;52.152;5.392;2023-06-22T03:03:40;8.50;;;5.67;;
14080;SDS011;7116;52.152;5.392;2023-06-22T03:06:05;10.35;;;5.70;;
14080;SDS011;7116;52.152;5.392;2023-06-22T03:08:31;8.43;;;6.00;;
14080;SDS011;7116;52.152;5.392;2023-06-22T03:10:56;8.60;;;6.07;;
14080;SDS011;7116;52.152;5.392;2023-06-22T03:13:21;8.50;;;5.87;;
14080;SDS011;7116;52.152;5.392;2023-06-22T03:15:47;8.90;;;6.07;;
14080;SDS011;7116;52.152;5.392;2023-06-22T03:18:12;8.37;;;5.77;;
14080;SDS011;7116;52.152;5.392;2023-06-22T03:20:37;9.43;;;5.97;;
14080;SDS011;7116;52.152;5.392;2023-06-22T03:23:02;11.43;;;6.40;;
14080;SDS011;7116;52.152;5.392;2023-06-22T03:25:28;11.77;;;6.13;;
14080;SDS011;7116;52.152;5.392;2023-06-22T03:27:53;10.67;;;6.60;;
14080;SDS011;7116;52.152;5.392;2023-06-22T03:30:18;8.93;;;5.93;;
14080;SDS011;7116;52.152;5.392;2023-06-22T03:32:43;7.83;;;5.53;;
14080;SDS011;7116;52.152;5.392;2023-06-22T03:35:09;7.33;;;6.00;;
14080;SDS011;7116;52.152;5.392;2023-06-22T03:37:38;7.85;;;6.18;;
14080;SDS011;7116;52.152;5.392;2023-06-22T03:40:04;10.38;;;5.93;;
14080;SDS011;7116;52.152;5.392;2023-06-22T03:42:30;11.02;;;6.47;;
14080;SDS011;7116;52.152;5.392;2023-06-22T03:44:55;9.33;;;6.30;;
14080;SDS011;7116;52.152;5.392;2023-06-22T03:47:21;8.60;;;5.87;;
14080;SDS011;7116;52.152;5.392;2023-06-22T03:49:48;11.60;;;6.90;;
14080;SDS011;7116;52.152;5.392;2023-06-22T03:52:13;11.57;;;7.00;;
14080;SDS011;7116;52.152;5.392;2023-06-22T03:54:39;9.87;;;6.13;;
14080;SDS011;7116;52.152;5.392;2023-06-22T03:57:05;11.37;;;6.63;;
14080;SDS011;7116;52.152;5.392;2023-06-22T03:59:31;12.00;;;6.93;;
14080;SDS011;7116;52.152;5.392;2023-06-22T04:01:57;9.23;;;6.18;;
14080;SDS011;7116;52.152;5.392;2023-06-22T04:04:22;9.03;;;6.13;;
14080;SDS011;7116;52.152;5.392;2023-06-22T04:06:48;8.43;;;6.40;;
14080;SDS011;7116;52.152;5.392;2023-06-22T04:09:14;9.57;;;6.68;;
14080;SDS011;7116;52.152;5.392;2023-06-22T04:11:40;9.93;;;6.57;;
14080;SDS011;7116;52.152;5.392;2023-06-22T04:14:05;9.13;;;6.40;;
14080;SDS011;7116;52.152;5.392;2023-06-22T04:16:30;9.57;;;6.50;;
14080;SDS011;7116;52.152;5.392;2023-06-22T04:18:55;9.50;;;6.67;;
14080;SDS011;7116;52.152;5.392;2023-06-22T04:21:22;12.30;;;7.47;;
14080;SDS011;7116;52.152;5.392;2023-06-22T04:23:47;12.00;;;7.18;;
14080;SDS011;7116;52.152;5.392;2023-06-22T04:26:13;11.13;;;7.33;;
14080;SDS011;7116;52.152;5.392;2023-06-22T04:28:39;12.25;;;7.30;;
14080;SDS011;7116;52.152;5.392;2023-06-22T04:31:04;11.70;;;8.07;;
14080;SDS011;7116;52.152;5.392;2023-06-22T04:33:29;11.03;;;7.57;;
14080;SDS011;7116;52.152;5.392;2023-06-22T04:35:55;12.15;;;8.02;;
14080;SDS011;7116;52.152;5.392;2023-06-22T04:38:22;13.30;;;7.90;;
14080;SDS011;7116;52.152;5.392;2023-06-22T04:40:47;11.32;;;7.88;;
14080;SDS011;7116;52.152;5.392;2023-06-22T04:43:12;12.73;;;7.93;;
14080;SDS011;7116;52.152;5.392;2023-06-22T04:45:38;12.03;;;8.47;;
14080;SDS011;7116;52.152;5.392;2023-06-22T04:48:03;11.57;;;8.13;;
14080;SDS011;7116;52.152;5.392;2023-06-22T04:50:29;11.63;;;7.80;;
14080;SDS011;7116;52.152;5.392;2023-06-22T04:52:54;13.87;;;9.03;;
14080;SDS011;7116;52.152;5.392;2023-06-22T04:55:19;10.80;;;7.90;;
14080;SDS011;7116;52.152;5.392;2023-06-22T04:57:48;13.60;;;9.32;;
14080;SDS011;7116;52.152;5.392;2023-06-22T05:00:17;15.47;;;8.70;;
14080;SDS011;7116;52.152;5.392;2023-06-22T05:02:43;16.58;;;9.48;;
14080;SDS011;7116;52.152;5.392;2023-06-22T05:05:09;12.55;;;8.55;;
14080;SDS011;7116;52.152;5.392;2023-06-22T05:07:38;14.25;;;8.57;;
14080;SDS011;7116;52.152;5.392;2023-06-22T05:10:04;12.95;;;8.75;;
14080;SDS011;7116;52.152;5.392;2023-06-22T05:12:30;15.67;;;7.67;;
14080;SDS011;7116;52.152;5.392;2023-06-22T05:14:55;13.30;;;8.67;;
14080;SDS011;7116;52.152;5.392;2023-06-22T05:17:20;14.13;;;8.10;;
14080;SDS011;7116;52.152;5.392;2023-06-22T05:19:46;13.70;;;7.83;;
14080;SDS011;7116;52.152;5.392;2023-06-22T05:22:15;14.90;;;9.05;;
14080;SDS011;7116;52.152;5.392;2023-06-22T05:24:40;12.68;;;8.80;;
14080;SDS011;7116;52.152;5.392;2023-06-22T05:27:05;17.47;;;9.37;;
14080;SDS011;7116;52.152;5.392;2023-06-22T05:29:31;14.27;;;9.57;;
14080;SDS011;7116;52.152;5.392;2023-06-22T05:31:56;13.63;;;9.63;;
14080;SDS011;7116;52.152;5.392;2023-06-22T05:34:21;16.10;;;9.87;;
14080;SDS011;7116;52.152;5.392;2023-06-22T05:36:46;18.67;;;10.97;;
14080;SDS011;7116;52.152;5.392;2023-06-22T05:39:12;18.10;;;10.70;;
14080;SDS011;7116;52.152;5.392;2023-06-22T05:41:41;15.75;;;11.07;;
14080;SDS011;7116;52.152;5.392;2023-06-22T05:44:06;17.37;;;11.30;;
14080;SDS011;7116;52.152;5.392;2023-06-22T05:46:31;14.67;;;10.47;;
14080;SDS011;7116;52.152;5.392;2023-06-22T05:48:56;15.37;;;10.93;;
14080;SDS011;7116;52.152;5.392;2023-06-22T05:51:21;14.83;;;9.80;;
14080;SDS011;7116;52.152;5.392;2023-06-22T05:53:47;17.70;;;10.57;;
14080;SDS011;7116;52.152;5.392;2023-06-22T05:56:15;15.48;;;10.77;;
14080;SDS011;7116;52.152;5.392;2023-06-22T05:58:40;14.27;;;10.40;;
14080;SDS011;7116;52.152;5.392;2023-06-22T06:01:05;18.77;;;11.43;;
14080;SDS011;7116;52.152;5.392;2023-06-22T06:03:30;14.20;;;10.00;;
14080;SDS011;7116;52.152;5.392;2023-06-22T06:05:55;17.07;;;11.30;;
14080;SDS011;7116;52.152;5.392;2023-06-22T06:08:21;15.27;;;9.73;;
14080;SDS011;7116;52.152;5.392;2023-06-22T06:10:46;14.30;;;10.27;;
14080;SDS011;7116;52.152;5.392;2023-06-22T06:13:11;16.43;;;10.47;;
14080;SDS011;7116;52.152;5.392;2023-06-22T06:15:37;17.13;;;10.27;;
14080;SDS011;7116;52.152;5.392;2023-06-22T06:18:02;16.23;;;10.10;;
14080;SDS011;7116;52.152;5.392;2023-06-22T06:20:30;13.02;;;8.90;;
14080;SDS011;7116;52.152;5.392;2023-06-22T06:22:55;13.93;;;9.63;;
14080;SDS011;7116;52.152;5.392;2023-06-22T06:25:21;12.27;;;9.60;;
14080;SDS011;7116;52.152;5.392;2023-06-22T06:27:51;14.53;;;8.40;;
14080;SDS011;7116;52.152;5.392;2023-06-22T06:30:18;15.73;;;9.75;;
14080;SDS011;7116;52.152;5.392;2023-06-22T06:32:44;17.15;;;9.77;;
14080;SDS011;7116;52.152;5.392;2023-06-22T06:35:10;13.00;;;9.25;;
14080;SDS011;7116;52.152;5.392;2023-06-22T06:37:36;10.87;;;8.93;;
14080;SDS011;7116;52.152;5.392;2023-06-22T06:40:05;14.70;;;10.07;;
14080;SDS011;7116;52.152;5.392;2023-06-22T06:42:33;12.52;;;9.05;;
14080;SDS011;7116;52.152;5.392;2023-06-22T06:44:58;13.87;;;9.67;;
14080;SDS011;7116;52.152;5.392;2023-06-22T06:47:23;19.10;;;9.17;;
14080;SDS011;7116;52.152;5.392;2023-06-22T06:49:49;15.20;;;8.93;;
14080;SDS011;7116;52.152;5.392;2023-06-22T06:52:14;15.70;;;10.20;;
14080;SDS011;7116;52.152;5.392;2023-06-22T06:54:47;14.80;;;9.50;;
14080;SDS011;7116;52.152;5.392;2023-06-22T06:57:17;15.95;;;10.02;;
14080;SDS011;7116;52.152;5.392;2023-06-22T07:00:00;13.43;;;9.53;;
14080;SDS011;7116;52.152;5.392;2023-06-22T07:02:34;13.25;;;10.25;;
14080;SDS011;7116;52.152;5.392;2023-06-22T07:05:04;14.98;;;10.00;;
14080;SDS011;7116;52.152;5.392;2023-06-22T07:07:37;16.75;;;9.90;;
14080;SDS011;7116;52.152;5.392;2023-06-22T07:10:03;14.53;;;9.77;;
14080;SDS011;7116;52.152;5.392;2023-06-22T07:12:29;13.55;;;9.38;;
14080;SDS011;7116;52.152;5.392;2023-06-22T07:14:57;14.93;;;9.13;;
14080;SDS011;7116;52.152;5.392;2023-06-22T07:17:38;13.30;;;8.98;;
14080;SDS011;7116;52.152;5.392;2023-06-22T07:20:06;12.48;;;8.60;;
14080;SDS011;7116;52.152;5.392;2023-06-22T07:22:35;12.27;;;8.60;;
14080;SDS011;7116;52.152;5.392;2023-06-22T07:25:00;10.20;;;8.00;;
14080;SDS011;7116;52.152;5.392;2023-06-22T07:27:26;13.30;;;7.93;;
14080;SDS011;7116;52.152;5.392;2023-06-22T07:29:51;11.10;;;7.47;;
14080;SDS011;7116;52.152;5.392;2023-06-22T07:32:17;13.23;;;8.57;;
14080;SDS011;7116;52.152;5.392;2023-06-22T07:34:44;12.80;;;8.00;;
14080;SDS011;7116;52.152;5.392;2023-06-22T07:37:12;11.05;;;6.70;;
14080;SDS011;7116;52.152;5.392;2023-06-22T07:39:55;10.70;;;7.83;;
14080;SDS011;7116;52.152;5.392;2023-06-22T07:42:26;13.25;;;8.02;;
14080;SDS011;7116;52.152;5.392;2023-06-22T07:44:51;13.05;;;8.65;;
14080;SDS011;7116;52.152;5.392;2023-06-22T07:47:16;12.53;;;7.83;;
14080;SDS011;7116;52.152;5.392;2023-06-22T07:49:45;10.20;;;7.15;;
14080;SDS011;7116;52.152;5.392;2023-06-22T07:52:10;9.60;;;6.43;;
14080;SDS011;7116;52.152;5.392;2023-06-22T07:54:36;7.23;;;5.40;;
14080;SDS011;7116;52.152;5.392;2023-06-22T07:57:01;10.07;;;6.17;;
14080;SDS011;7116;52.152;5.392;2023-06-22T07:59:26;10.90;;;7.00;;
14080;SDS011;7116;52.152;5.392;2023-06-22T08:01:52;7.43;;;6.23;;
14080;SDS011;7116;52.152;5.392;2023-06-22T08:04:17;11.40;;;6.37;;
14080;SDS011;7116;52.152;5.392;2023-06-22T08:06:42;9.13;;;6.53;;
14080;SDS011;7116;52.152;5.392;2023-06-22T08:09:08;8.43;;;6.40;;
14080;SDS011;7116;52.152;5.392;2023-06-22T08:11:33;8.60;;;6.23;;
14080;SDS011;7116;52.152;5.392;2023-06-22T08:13:59;9.57;;;6.33;;
14080;SDS011;7116;52.152;5.392;2023-06-22T08:16:27;8.07;;;5.25;;
14080;SDS011;7116;52.152;5.392;2023-06-22T08:18:56;8.10;;;5.13;;
14080;SDS011;7116;52.152;5.392;2023-06-22T08:21:21;9.27;;;6.00;;
14080;SDS011;7116;52.152;5.392;2023-06-22T08:23:47;8.57;;;5.60;;
14080;SDS011;7116;52.152;5.392;2023-06-22T08:26:13;8.15;;;5.53;;
14080;SDS011;7116;52.152;5.392;2023-06-22T08:28:39;10.93;;;5.68;;
14080;SDS011;7116;52.152;5.392;2023-06-22T08:31:04;11.37;;;5.43;;
14080;SDS011;7116;52.152;5.392;2023-06-22T08:33:29;7.07;;;5.37;;
14080;SDS011;7116;52.152;5.392;2023-06-22T08:35:55;8.07;;;5.70;;
14080;SDS011;7116;52.152;5.392;2023-06-22T08:38:21;7.77;;;5.77;;
14080;SDS011;7116;52.152;5.392;2023-06-22T08:40:46;9.20;;;5.80;;
14080;SDS011;7116;52.152;5.392;2023-06-22T08:43:12;5.83;;;4.27;;
14080;SDS011;7116;52.152;5.392;2023-06-22T08:45:37;8.23;;;4.80;;
14080;SDS011;7116;52.152;5.392;2023-06-22T08:48:02;7.97;;;4.90;;
14080;SDS011;7116;52.152;5.392;2023-06-22T08:50:27;8.17;;;4.73;;
14080;SDS011;7116;52.152;5.392;2023-06-22T08:52:53;8.23;;;4.53;;
14080;SDS011;7116;52.152;5.392;2023-06-22T08:55:18;9.03;;;4.20;;
14080;SDS011;7116;52.152;5.392;2023-06-22T08:57:43;6.40;;;4.47;;
14080;SDS011;7116;52.152;5.392;2023-06-22T09:00:09;6.83;;;4.40;;
14080;SDS011;7116;52.152;5.392;2023-06-22T09:02:41;5.57;;;4.32;;
14080;SDS011;7116;52.152;5.392;2023-06-22T09:05:06;7.30;;;4.30;;
14080;SDS011;7116;52.152;5.392;2023-06-22T09:07:31;6.27;;;3.60;;
14080;SDS011;7116;52.152;5.392;2023-06-22T09:09:57;6.00;;;4.10;;
14080;SDS011;7116;52.152;5.392;2023-06-22T09:12:22;6.27;;;3.83;;
14080;SDS011;7116;52.152;5.392;2023-06-22T09:14:50;5.30;;;3.87;;
14080;SDS011;7116;52.152;5.392;2023-06-22T09:17:16;6.43;;;3.92;;
14080;SDS011;7116;52.152;5.392;2023-06-22T09:19:41;5.93;;;3.77;;
14080;SDS011;7116;52.152;5.392;2023-06-22T09:22:11;5.53;;;3.97;;
14080;SDS011;7116;52.152;5.392;2023-06-22T09:24:36;4.43;;;3.30;;
14080;SDS011;7116;52.152;5.392;2023-06-22T09:27:02;5.17;;;2.97;;
14080;SDS011;7116;52.152;5.392;2023-06-22T09:29:27;7.23;;;3.43;;
14080;SDS011;7116;52.152;5.392;2023-06-22T09:31:58;5.30;;;3.10;;
14080;SDS011;7116;52.152;5.392;2023-06-22T09:34:26;8.07;;;3.35;;
14080;SDS011;7116;52.152;5.392;2023-06-22T09:40:17;6.75;;;3.92;;
14080;SDS011;7116;52.152;5.392;2023-06-22T09:42:42;5.30;;;3.60;;
14080;SDS011;7116;52.152;5.392;2023-06-22T09:45:07;4.53;;;3.50;;
14080;SDS011;7116;52.152;5.392;2023-06-22T09:47:33;6.53;;;4.00;;
14080;SDS011;7116;52.152;5.392;2023-06-22T09:49:58;6.00;;;3.90;;
14080;SDS011;7116;52.152;5.392;2023-06-22T09:52:24;7.72;;;3.50;;
14080;SDS011;7116;52.152;5.392;2023-06-22T09:54:50;5.05;;;3.47;;
14080;SDS011;7116;52.152;5.392;2023-06-22T09:57:15;5.87;;;3.80;;
14080;SDS011;7116;52.152;5.392;2023-06-22T09:59:40;4.00;;;2.83;;
14080;SDS011;7116;52.152;5.392;2023-06-22T10:02:06;5.83;;;3.23;;
14080;SDS011;7116;52.152;5.392;2023-06-22T10:04:33;5.55;;;3.45;;
14080;SDS011;7116;52.152;5.392;2023-06-22T10:06:58;5.95;;;3.08;;
14080;SDS011;7116;52.152;5.392;2023-06-22T10:09:23;6.83;;;3.83;;
14080;SDS011;7116;52.152;5.392;2023-06-22T10:11:49;8.90;;;3.90;;
14080;SDS011;7116;52.152;5.392;2023-06-22T10:14:35;5.27;;;4.03;;
14080;SDS011;7116;52.152;5.392;2023-06-22T10:17:02;5.20;;;4.00;;
14080;SDS011;7116;52.152;5.392;2023-06-22T10:19:28;4.80;;;3.50;;
14080;SDS011;7116;52.152;5.392;2023-06-22T10:21:53;4.63;;;3.33;;
14080;SDS011;7116;52.152;5.392;2023-06-22T10:24:39;6.22;;;3.33;;
14080;SDS011;7116;52.152;5.392;2023-06-22T10:27:24;5.13;;;3.45;;
14080;SDS011;7116;52.152;5.392;2023-06-22T10:30:11;4.33;;;3.23;;
14080;SDS011;7116;52.152;5.392;2023-06-22T10:32:41;4.95;;;3.45;;
14080;SDS011;7116;52.152;5.392;2023-06-22T10:37:55;5.18;;;3.47;;
14080;SDS011;7116;52.152;5.392;2023-06-22T10:40:21;6.00;;;3.65;;
14080;SDS011;7116;52.152;5.392;2023-06-22T10:42:46;4.70;;;3.43;;
14080;SDS011;7116;52.152;5.392;2023-06-22T10:45:12;7.40;;;3.30;;
14080;SDS011;7116;52.152;5.392;2023-06-22T10:47:40;6.38;;;3.05;;
14080;SDS011;7116;52.152;5.392;2023-06-22T10:50:07;8.53;;;5.53;;
14080;SDS011;7116;52.152;5.392;2023-06-22T10:52:41;9.15;;;5.35;;
14080;SDS011;7116;52.152;5.392;2023-06-22T10:55:28;8.43;;;3.90;;
14080;SDS011;7116;52.152;5.392;2023-06-22T10:57:59;6.43;;;4.03;;
14080;SDS011;7116;52.152;5.392;2023-06-22T11:00:24;5.43;;;3.87;;
14080;SDS011;7116;52.152;5.392;2023-06-22T11:02:51;6.77;;;4.93;;
14080;SDS011;7116;52.152;5.392;2023-06-22T11:05:16;8.18;;;5.07;;
14080;SDS011;7116;52.152;5.392;2023-06-22T11:07:42;9.93;;;6.07;;
14080;SDS011;7116;52.152;5.392;2023-06-22T11:10:08;9.95;;;5.32;;
14080;SDS011;7116;52.152;5.392;2023-06-22T11:12:33;9.13;;;6.00;;
14080;SDS011;7116;52.152;5.392;2023-06-22T11:14:59;9.67;;;5.90;;
14080;SDS011;7116;52.152;5.392;2023-06-22T11:17:24;8.80;;;5.97;;
14080;SDS011;7116;52.152;5.392;2023-06-22T11:19:50;8.37;;;6.17;;
14080;SDS011;7116;52.152;5.392;2023-06-22T11:22:18;9.38;;;6.35;;
14080;SDS011;7116;52.152;5.392;2023-06-22T11:24:43;8.27;;;5.47;;
14080;SDS011;7116;52.152;5.392;2023-06-22T11:27:08;10.23;;;6.70;;
14080;SDS011;7116;52.152;5.392;2023-06-22T11:29:33;10.50;;;6.63;;
14080;SDS011;7116;52.152;5.392;2023-06-22T11:31:59;10.80;;;6.10;;
14080;SDS011;7116;52.152;5.392;2023-06-22T11:34:24;11.73;;;6.00;;
14080;SDS011;7116;52.152;5.392;2023-06-22T11:36:49;7.97;;;5.77;;
14080;SDS011;7116;52.152;5.392;2023-06-22T11:39:15;9.20;;;6.43;;
14080;SDS011;7116;52.152;5.392;2023-06-22T11:41:40;8.73;;;6.33;;
14080;SDS011;7116;52.152;5.392;2023-06-22T11:44:06;8.40;;;6.40;;
14080;SDS011;7116;52.152;5.392;2023-06-22T11:46:33;11.03;;;7.00;;
14080;SDS011;7116;52.152;5.392;2023-06-22T11:52:05;9.02;;;6.13;;
14080;SDS011;7116;52.152;5.392;2023-06-22T11:54:31;10.67;;;6.50;;
14080;SDS011;7116;52.152;5.392;2023-06-22T11:56:56;9.17;;;6.13;;
14080;SDS011;7116;52.152;5.392;2023-06-22T11:59:21;10.07;;;5.73;;
14080;SDS011;7116;52.152;5.392;2023-06-22T12:01:47;9.70;;;6.68;;
14080;SDS011;7116;52.152;5.392;2023-06-22T12:04:12;9.40;;;6.50;;
14080;SDS011;7116;52.152;5.392;2023-06-22T12:06:39;9.47;;;6.27;;
14080;SDS011;7116;52.152;5.392;2023-06-22T12:09:07;8.10;;;5.68;;
14080;SDS011;7116;52.152;5.392;2023-06-22T12:11:32;10.63;;;6.32;;
14080;SDS011;7116;52.152;5.392;2023-06-22T12:13:57;8.60;;;6.37;;
14080;SDS011;7116;52.152;5.392;2023-06-22T12:16:26;12.93;;;6.00;;
14080;SDS011;7116;52.152;5.392;2023-06-22T12:18:52;8.18;;;5.82;;
14080;SDS011;7116;52.152;5.392;2023-06-22T12:21:17;11.40;;;5.93;;
14080;SDS011;7116;52.152;5.392;2023-06-22T12:23:44;11.60;;;6.60;;
14080;SDS011;7116;52.152;5.392;2023-06-22T12:26:19;11.67;;;6.07;;
14080;SDS011;7116;52.152;5.392;2023-06-22T12:28:44;8.23;;;5.40;;
14080;SDS011;7116;52.152;5.392;2023-06-22T12:31:09;6.83;;;5.53;;
14080;SDS011;7116;52.152;5.392;2023-06-22T12:33:34;8.43;;;4.97;;
14080;SDS011;7116;52.152;5.392;2023-06-22T12:36:00;8.43;;;5.57;;
14080;SDS011;7116;52.152;5.392;2023-06-22T12:38:25;8.33;;;5.73;;
14080;SDS011;7116;52.152;5.392;2023-06-22T12:40:51;10.07;;;5.63;;
14080;SDS011;7116;52.152;5.392;2023-06-22T12:43:16;9.03;;;6.00;;
14080;SDS011;7116;52.152;5.392;2023-06-22T12:45:41;9.60;;;5.40;;
14080;SDS011;7116;52.152;5.392;2023-06-22T12:48:06;8.57;;;5.40;;
14080;SDS011;7116;52.152;5.392;2023-06-22T12:50:33;7.43;;;5.70;;
14080;SDS011;7116;52.152;5.392;2023-06-22T12:52:58;8.13;;;5.33;;
14080;SDS011;7116;52.152;5.392;2023-06-22T12:55:33;7.80;;;5.28;;
14080;SDS011;7116;52.152;5.392;2023-06-22T12:57:59;10.23;;;5.27;;
14080;SDS011;7116;52.152;5.392;2023-06-22T13:00:24;8.70;;;5.53;;
14080;SDS011;7116;52.152;5.392;2023-06-22T13:02:49;7.05;;;4.68;;
14080;SDS011;7116;52.152;5.392;2023-06-22T13:05:15;7.03;;;4.80;;
14080;SDS011;7116;52.152;5.392;2023-06-22T13:07:43;9.37;;;5.57;;
14080;SDS011;7116;52.152;5.392;2023-06-22T13:10:08;9.73;;;5.90;;
14080;SDS011;7116;52.152;5.392;2023-06-22T13:12:54;7.95;;;5.10;;
14080;SDS011;7116;52.152;5.392;2023-06-22T13:15:25;8.82;;;5.10;;
14080;SDS011;7116;52.152;5.392;2023-06-22T13:17:50;12.00;;;4.93;;
14080;SDS011;7116;52.152;5.392;2023-06-22T13:20:16;10.35;;;5.68;;
14080;SDS011;7116;52.152;5.392;2023-06-22T13:22:41;6.93;;;5.30;;
14080;SDS011;7116;52.152;5.392;2023-06-22T13:25:08;10.20;;;5.40;;
14080;SDS011;7116;52.152;5.392;2023-06-22T13:27:37;7.83;;;5.70;;
14080;SDS011;7116;52.152;5.392;2023-06-22T13:30:09;7.97;;;6.30;;
14080;SDS011;7116;52.152;5.392;2023-06-22T13:32:35;9.07;;;5.00;;
14080;SDS011;7116;52.152;5.392;2023-06-22T13:35:00;10.63;;;5.40;;
14080;SDS011;7116;52.152;5.392;2023-06-22T13:37:26;8.57;;;6.43;;
14080;SDS011;7116;52.152;5.392;2023-06-22T13:39:51;8.47;;;5.80;;
14080;SDS011;7116;52.152;5.392;2023-06-22T13:42:16;9.33;;;5.80;;
14080;SDS011;7116;52.152;5.392;2023-06-22T13:44:42;8.73;;;5.83;;
14080;SDS011;7116;52.152;5.392;2023-06-22T13:47:07;10.10;;;5.40;;
14080;SDS011;7116;52.152;5.392;2023-06-22T13:49:33;10.82;;;6.07;;
14080;SDS011;7116;52.152;5.392;2023-06-22T13:51:58;7.77;;;5.70;;
14080;SDS011;7116;52.152;5.392;2023-06-22T13:54:24;7.72;;;5.70;;
14080;SDS011;7116;52.152;5.392;2023-06-22T13:56:49;11.87;;;5.77;;
14080;SDS011;7116;52.152;5.392;2023-06-22T13:59:14;7.77;;;5.50;;
14080;SDS011;7116;52.152;5.392;2023-06-22T14:01:39;8.63;;;5.43;;
14080;SDS011;7116;52.152;5.392;2023-06-22T14:04:06;10.10;;;6.10;;
14080;SDS011;7116;52.152;5.392;2023-06-22T14:06:31;8.53;;;5.87;;
14080;SDS011;7116;52.152;5.392;2023-06-22T14:08:56;8.83;;;6.10;;
14080;SDS011;7116;52.152;5.392;2023-06-22T14:11:21;10.67;;;6.80;;
14080;SDS011;7116;52.152;5.392;2023-06-22T14:13:47;10.43;;;5.97;;
14080;SDS011;7116;52.152;5.392;2023-06-22T14:16:12;9.53;;;6.90;;
14080;SDS011;7116;52.152;5.392;2023-06-22T14:18:37;10.10;;;6.60;;
14080;SDS011;7116;52.152;5.392;2023-06-22T14:21:02;10.37;;;6.70;;
14080;SDS011;7116;52.152;5.392;2023-06-22T14:23:28;9.90;;;6.47;;
14080;SDS011;7116;52.152;5.392;2023-06-22T14:25:53;8.50;;;6.30;;
14080;SDS011;7116;52.152;5.392;2023-06-22T14:28:18;8.43;;;6.33;;
14080;SDS011;7116;52.152;5.392;2023-06-22T14:30:44;9.13;;;6.00;;
14080;SDS011;7116;52.152;5.392;2023-06-22T14:33:09;10.07;;;5.97;;
14080;SDS011;7116;52.152;5.392;2023-06-22T14:35:34;7.70;;;5.87;;
14080;SDS011;7116;52.152;5.392;2023-06-22T14:38:00;8.70;;;6.57;;
14080;SDS011;7116;52.152;5.392;2023-06-22T14:40:25;9.57;;;6.40;;
14080;SDS011;7116;52.152;5.392;2023-06-22T14:42:50;14.80;;;6.53;;
14080;SDS011;7116;52.152;5.392;2023-06-22T14:45:16;10.97;;;6.67;;
14080;SDS011;7116;52.152;5.392;2023-06-22T14:47:41;10.03;;;6.40;;
14080;SDS011;7116;52.152;5.392;2023-06-22T14:50:06;13.10;;;6.70;;
14080;SDS011;7116;52.152;5.392;2023-06-22T14:52:32;9.17;;;6.47;;
14080;SDS011;7116;52.152;5.392;2023-06-22T14:54:57;12.30;;;6.57;;
14080;SDS011;7116;52.152;5.392;2023-06-22T14:57:22;9.47;;;6.70;;
14080;SDS011;7116;52.152;5.392;2023-06-22T14:59:48;8.90;;;6.67;;
14080;SDS011;7116;52.152;5.392;2023-06-22T15:02:13;10.73;;;7.00;;
14080;SDS011;7116;52.152;5.392;2023-06-22T15:04:39;8.50;;;6.30;;
14080;SDS011;7116;52.152;5.392;2023-06-22T15:07:04;11.37;;;7.03;;